sensor_id;sensor_type;location;lat;lon;timestamp;P1;durP1;ratioP1;P2;durP2;ratioP2
69979;SDS011;57318;56.232;43.944;2022-10-23T00:00:01;7.37;;;3.90;;
69979;SDS011;57318;56.232;43.944;2022-10-23T00:02:29;9.27;;;3.63;;
69979;SDS011;57318;56.232;43.944;2022-10-23T00:04:55;4.93;;;3.23;;
69979;SDS011;57318;56.232;43.944;2022-10-23T00:07:20;5.97;;;3.00;;
69979;SDS011;57318;56.232;43.944;2022-10-23T00:09:46;8.43;;;3.50;;
69979;SDS011;57318;56.232;43.944;2022-10-23T00:12:12;6.07;;;3.17;;
69979;SDS011;57318;56.232;43.944;2022-10-23T00:14:37;6.03;;;3.63;;
69979;SDS011;57318;56.232;43.944;2022-10-23T00:17:03;6.17;;;3.63;;
69979;SDS011;57318;56.232;43.944;2022-10-23T00:19:28;7.57;;;3.47;;
69979;SDS011;57318;56.232;43.944;2022-10-23T00:21:54;8.63;;;3.67;;
69979;SDS011;57318;56.232;43.944;2022-10-23T00:24:20;8.07;;;3.87;;
69979;SDS011;57318;56.232;43.944;2022-10-23T00:26:47;6.73;;;3.50;;
69979;SDS011;57318;56.232;43.944;2022-10-23T00:29:14;7.47;;;3.50;;
69979;SDS011;57318;56.232;43.944;2022-10-23T00:31:40;6.37;;;3.53;;
69979;SDS011;57318;56.232;43.944;2022-10-23T00:34:06;10.10;;;4.03;;
69979;SDS011;57318;56.232;43.944;2022-10-23T00:36:32;6.38;;;3.45;;
69979;SDS011;57318;56.232;43.944;2022-10-23T00:38:58;7.87;;;3.10;;
69979;SDS011;57318;56.232;43.944;2022-10-23T00:41:28;6.60;;;3.80;;
69979;SDS011;57318;56.232;43.944;2022-10-23T00:46:44;8.38;;;3.80;;
69979;SDS011;57318;56.232;43.944;2022-10-23T00:49:11;7.57;;;3.80;;
69979;SDS011;57318;56.232;43.944;2022-10-23T00:51:38;7.70;;;3.60;;
69979;SDS011;57318;56.232;43.944;2022-10-23T00:54:07;6.60;;;3.88;;
69979;SDS011;57318;56.232;43.944;2022-10-23T00:56:36;9.45;;;3.88;;
69979;SDS011;57318;56.232;43.944;2022-10-23T00:59:03;6.88;;;3.28;;
69979;SDS011;57318;56.232;43.944;2022-10-23T01:01:29;8.67;;;3.63;;
69979;SDS011;57318;56.232;43.944;2022-10-23T01:03:54;7.60;;;3.30;;
69979;SDS011;57318;56.232;43.944;2022-10-23T01:06:30;6.50;;;3.60;;
69979;SDS011;57318;56.232;43.944;2022-10-23T01:11:56;9.20;;;3.47;;
69979;SDS011;57318;56.232;43.944;2022-10-23T01:21:09;9.02;;;4.03;;
69979;SDS011;57318;56.232;43.944;2022-10-23T01:26:39;9.25;;;3.80;;
69979;SDS011;57318;56.232;43.944;2022-10-23T01:29:32;7.50;;;3.80;;
69979;SDS011;57318;56.232;43.944;2022-10-23T01:35:27;8.82;;;4.10;;
69979;SDS011;57318;56.232;43.944;2022-10-23T01:38:07;9.70;;;4.18;;
69979;SDS011;57318;56.232;43.944;2022-10-23T01:43:18;7.28;;;3.90;;
69979;SDS011;57318;56.232;43.944;2022-10-23T01:45:53;8.27;;;3.67;;
69979;SDS011;57318;56.232;43.944;2022-10-23T01:48:23;6.35;;;3.75;;
69979;SDS011;57318;56.232;43.944;2022-10-23T01:50:53;9.32;;;3.75;;
69979;SDS011;57318;56.232;43.944;2022-10-23T01:53:23;9.77;;;3.95;;
69979;SDS011;57318;56.232;43.944;2022-10-23T01:55:54;7.72;;;4.05;;
69979;SDS011;57318;56.232;43.944;2022-10-23T01:58:22;14.27;;;3.80;;
69979;SDS011;57318;56.232;43.944;2022-10-23T02:00:51;7.35;;;3.78;;
69979;SDS011;57318;56.232;43.944;2022-10-23T02:03:20;9.18;;;3.90;;
69979;SDS011;57318;56.232;43.944;2022-10-23T02:05:47;9.32;;;3.58;;
69979;SDS011;57318;56.232;43.944;2022-10-23T02:08:13;5.20;;;3.30;;
69979;SDS011;57318;56.232;43.944;2022-10-23T02:10:40;8.03;;;4.00;;
69979;SDS011;57318;56.232;43.944;2022-10-23T02:13:18;8.45;;;3.78;;
69979;SDS011;57318;56.232;43.944;2022-10-23T02:16:10;9.52;;;3.53;;
69979;SDS011;57318;56.232;43.944;2022-10-23T02:21:28;8.13;;;3.67;;
69979;SDS011;57318;56.232;43.944;2022-10-23T02:24:14;6.47;;;3.58;;
69979;SDS011;57318;56.232;43.944;2022-10-23T02:26:49;8.63;;;4.03;;
69979;SDS011;57318;56.232;43.944;2022-10-23T02:29:29;9.35;;;4.05;;
69979;SDS011;57318;56.232;43.944;2022-10-23T02:31:59;10.18;;;4.00;;
69979;SDS011;57318;56.232;43.944;2022-10-23T02:36:52;7.35;;;3.78;;
69979;SDS011;57318;56.232;43.944;2022-10-23T02:39:19;9.53;;;4.70;;
69979;SDS011;57318;56.232;43.944;2022-10-23T02:41:48;10.63;;;4.90;;
69979;SDS011;57318;56.232;43.944;2022-10-23T02:58:19;11.43;;;5.13;;
69979;SDS011;57318;56.232;43.944;2022-10-23T03:00:52;11.07;;;4.18;;
69979;SDS011;57318;56.232;43.944;2022-10-23T03:03:23;11.68;;;4.78;;
69979;SDS011;57318;56.232;43.944;2022-10-23T03:05:53;11.30;;;5.13;;
69979;SDS011;57318;56.232;43.944;2022-10-23T03:08:19;9.43;;;5.00;;
69979;SDS011;57318;56.232;43.944;2022-10-23T03:10:44;11.10;;;4.67;;
69979;SDS011;57318;56.232;43.944;2022-10-23T03:13:10;8.30;;;4.30;;
69979;SDS011;57318;56.232;43.944;2022-10-23T03:15:36;11.13;;;5.00;;
69979;SDS011;57318;56.232;43.944;2022-10-23T03:18:02;11.07;;;5.40;;
69979;SDS011;57318;56.232;43.944;2022-10-23T03:20:28;12.73;;;5.20;;
69979;SDS011;57318;56.232;43.944;2022-10-23T03:22:53;10.40;;;5.23;;
69979;SDS011;57318;56.232;43.944;2022-10-23T03:25:19;14.67;;;6.23;;
69979;SDS011;57318;56.232;43.944;2022-10-23T03:27:45;9.93;;;4.57;;
69979;SDS011;57318;56.232;43.944;2022-10-23T03:30:10;11.03;;;4.60;;
69979;SDS011;57318;56.232;43.944;2022-10-23T03:32:36;11.85;;;5.57;;
69979;SDS011;57318;56.232;43.944;2022-10-23T03:35:02;13.23;;;6.13;;
69979;SDS011;57318;56.232;43.944;2022-10-23T03:37:29;10.77;;;5.07;;
69979;SDS011;57318;56.232;43.944;2022-10-23T03:39:54;9.20;;;4.60;;
69979;SDS011;57318;56.232;43.944;2022-10-23T03:42:20;11.33;;;5.77;;
69979;SDS011;57318;56.232;43.944;2022-10-23T03:44:45;12.70;;;5.37;;
69979;SDS011;57318;56.232;43.944;2022-10-23T03:47:11;14.67;;;5.20;;
69979;SDS011;57318;56.232;43.944;2022-10-23T03:49:37;14.13;;;5.20;;
69979;SDS011;57318;56.232;43.944;2022-10-23T03:52:03;11.25;;;5.40;;
69979;SDS011;57318;56.232;43.944;2022-10-23T03:54:30;11.45;;;5.60;;
69979;SDS011;57318;56.232;43.944;2022-10-23T03:56:56;10.73;;;4.90;;
69979;SDS011;57318;56.232;43.944;2022-10-23T03:59:22;13.70;;;5.80;;
69979;SDS011;57318;56.232;43.944;2022-10-23T04:01:48;13.60;;;5.40;;
69979;SDS011;57318;56.232;43.944;2022-10-23T04:04:13;11.80;;;5.30;;
69979;SDS011;57318;56.232;43.944;2022-10-23T04:06:39;13.48;;;6.00;;
69979;SDS011;57318;56.232;43.944;2022-10-23T04:09:05;10.07;;;5.17;;
69979;SDS011;57318;56.232;43.944;2022-10-23T04:11:31;13.05;;;5.88;;
69979;SDS011;57318;56.232;43.944;2022-10-23T04:13:57;13.52;;;5.82;;
69979;SDS011;57318;56.232;43.944;2022-10-23T04:16:23;12.27;;;5.87;;
69979;SDS011;57318;56.232;43.944;2022-10-23T04:18:49;11.23;;;5.43;;
69979;SDS011;57318;56.232;43.944;2022-10-23T04:21:15;9.03;;;5.07;;
69979;SDS011;57318;56.232;43.944;2022-10-23T04:23:41;12.50;;;5.87;;
69979;SDS011;57318;56.232;43.944;2022-10-23T04:26:07;12.48;;;5.57;;
69979;SDS011;57318;56.232;43.944;2022-10-23T04:28:33;15.40;;;5.70;;
69979;SDS011;57318;56.232;43.944;2022-10-23T04:30:58;12.90;;;5.70;;
69979;SDS011;57318;56.232;43.944;2022-10-23T04:33:24;12.00;;;5.93;;
69979;SDS011;57318;56.232;43.944;2022-10-23T04:35:50;13.97;;;5.63;;
69979;SDS011;57318;56.232;43.944;2022-10-23T04:38:15;12.07;;;5.97;;
69979;SDS011;57318;56.232;43.944;2022-10-23T04:40:41;10.60;;;5.70;;
69979;SDS011;57318;56.232;43.944;2022-10-23T04:43:07;10.37;;;5.37;;
69979;SDS011;57318;56.232;43.944;2022-10-23T04:45:32;19.60;;;6.20;;
69979;SDS011;57318;56.232;43.944;2022-10-23T04:47:58;10.80;;;5.73;;
69979;SDS011;57318;56.232;43.944;2022-10-23T04:50:24;13.50;;;5.43;;
69979;SDS011;57318;56.232;43.944;2022-10-23T04:52:52;11.00;;;5.63;;
69979;SDS011;57318;56.232;43.944;2022-10-23T04:55:21;14.38;;;6.03;;
69979;SDS011;57318;56.232;43.944;2022-10-23T04:57:49;11.55;;;5.68;;
69979;SDS011;57318;56.232;43.944;2022-10-23T05:00:15;14.85;;;5.40;;
69979;SDS011;57318;56.232;43.944;2022-10-23T05:02:42;11.32;;;5.57;;
69979;SDS011;57318;56.232;43.944;2022-10-23T05:05:08;10.70;;;5.67;;
69979;SDS011;57318;56.232;43.944;2022-10-23T05:07:34;11.90;;;5.47;;
69979;SDS011;57318;56.232;43.944;2022-10-23T05:10:00;9.43;;;5.70;;
69979;SDS011;57318;56.232;43.944;2022-10-23T05:12:26;10.27;;;5.67;;
69979;SDS011;57318;56.232;43.944;2022-10-23T05:14:52;10.43;;;5.43;;
69979;SDS011;57318;56.232;43.944;2022-10-23T05:17:19;10.55;;;5.22;;
69979;SDS011;57318;56.232;43.944;2022-10-23T05:19:55;7.90;;;4.30;;
69979;SDS011;57318;56.232;43.944;2022-10-23T05:22:24;11.77;;;5.03;;
69979;SDS011;57318;56.232;43.944;2022-10-23T05:24:54;12.60;;;5.30;;
69979;SDS011;57318;56.232;43.944;2022-10-23T05:27:20;9.83;;;5.07;;
69979;SDS011;57318;56.232;43.944;2022-10-23T05:29:45;13.33;;;5.30;;
69979;SDS011;57318;56.232;43.944;2022-10-23T05:32:11;11.40;;;4.97;;
69979;SDS011;57318;56.232;43.944;2022-10-23T05:34:39;9.57;;;4.95;;
69979;SDS011;57318;56.232;43.944;2022-10-23T05:37:06;19.20;;;5.53;;
69979;SDS011;57318;56.232;43.944;2022-10-23T05:39:34;9.55;;;4.93;;
69979;SDS011;57318;56.232;43.944;2022-10-23T05:42:00;12.23;;;6.30;;
69979;SDS011;57318;56.232;43.944;2022-10-23T05:44:26;9.53;;;5.50;;
69979;SDS011;57318;56.232;43.944;2022-10-23T05:46:52;12.17;;;5.27;;
69979;SDS011;57318;56.232;43.944;2022-10-23T05:49:17;11.27;;;4.87;;
69979;SDS011;57318;56.232;43.944;2022-10-23T05:51:43;11.83;;;5.30;;
69979;SDS011;57318;56.232;43.944;2022-10-23T05:54:08;12.33;;;6.23;;
69979;SDS011;57318;56.232;43.944;2022-10-23T05:56:35;11.37;;;5.33;;
69979;SDS011;57318;56.232;43.944;2022-10-23T05:59:01;12.52;;;4.65;;
69979;SDS011;57318;56.232;43.944;2022-10-23T06:01:27;11.13;;;5.70;;
69979;SDS011;57318;56.232;43.944;2022-10-23T06:03:53;10.23;;;5.67;;
69979;SDS011;57318;56.232;43.944;2022-10-23T06:06:18;10.20;;;4.93;;
69979;SDS011;57318;56.232;43.944;2022-10-23T06:08:44;12.40;;;5.60;;
69979;SDS011;57318;56.232;43.944;2022-10-23T06:11:11;14.93;;;6.67;;
69979;SDS011;57318;56.232;43.944;2022-10-23T06:13:40;12.75;;;4.80;;
69979;SDS011;57318;56.232;43.944;2022-10-23T06:16:10;9.88;;;5.20;;
69979;SDS011;57318;56.232;43.944;2022-10-23T06:18:39;11.70;;;5.50;;
69979;SDS011;57318;56.232;43.944;2022-10-23T06:21:05;9.95;;;5.20;;
69979;SDS011;57318;56.232;43.944;2022-10-23T06:23:32;11.90;;;5.20;;
69979;SDS011;57318;56.232;43.944;2022-10-23T06:26:00;9.38;;;5.13;;
69979;SDS011;57318;56.232;43.944;2022-10-23T06:30:52;11.43;;;5.07;;
69979;SDS011;57318;56.232;43.944;2022-10-23T06:33:18;10.60;;;4.43;;
69979;SDS011;57318;56.232;43.944;2022-10-23T06:35:44;13.67;;;4.97;;
69979;SDS011;57318;56.232;43.944;2022-10-23T06:38:09;13.13;;;5.33;;
69979;SDS011;57318;56.232;43.944;2022-10-23T06:40:36;12.57;;;5.23;;
69979;SDS011;57318;56.232;43.944;2022-10-23T06:43:02;10.32;;;4.63;;
69979;SDS011;57318;56.232;43.944;2022-10-23T06:45:29;11.15;;;5.40;;
69979;SDS011;57318;56.232;43.944;2022-10-23T06:47:56;9.88;;;5.07;;
69979;SDS011;57318;56.232;43.944;2022-10-23T06:50:22;9.47;;;5.03;;
69979;SDS011;57318;56.232;43.944;2022-10-23T06:55:14;17.92;;;4.82;;
69979;SDS011;57318;56.232;43.944;2022-10-23T06:57:41;12.18;;;5.80;;
69979;SDS011;57318;56.232;43.944;2022-10-23T07:00:07;9.10;;;5.00;;
69979;SDS011;57318;56.232;43.944;2022-10-23T07:02:33;12.27;;;5.40;;
69979;SDS011;57318;56.232;43.944;2022-10-23T07:04:59;8.40;;;5.17;;
69979;SDS011;57318;56.232;43.944;2022-10-23T07:07:24;13.30;;;4.90;;
69979;SDS011;57318;56.232;43.944;2022-10-23T07:09:50;11.00;;;5.00;;
69979;SDS011;57318;56.232;43.944;2022-10-23T07:12:15;8.93;;;5.10;;
69979;SDS011;57318;56.232;43.944;2022-10-23T07:14:41;10.47;;;5.73;;
69979;SDS011;57318;56.232;43.944;2022-10-23T07:17:07;10.97;;;6.07;;
69979;SDS011;57318;56.232;43.944;2022-10-23T07:19:32;10.73;;;4.90;;
69979;SDS011;57318;56.232;43.944;2022-10-23T07:21:58;9.07;;;5.17;;
69979;SDS011;57318;56.232;43.944;2022-10-23T07:24:23;12.63;;;5.97;;
69979;SDS011;57318;56.232;43.944;2022-10-23T07:26:49;12.57;;;5.33;;
69979;SDS011;57318;56.232;43.944;2022-10-23T07:29:15;9.73;;;5.07;;
69979;SDS011;57318;56.232;43.944;2022-10-23T07:31:40;13.27;;;5.73;;
69979;SDS011;57318;56.232;43.944;2022-10-23T07:34:06;11.97;;;5.47;;
69979;SDS011;57318;56.232;43.944;2022-10-23T07:36:33;11.57;;;5.28;;
69979;SDS011;57318;56.232;43.944;2022-10-23T07:38:58;9.53;;;4.83;;
69979;SDS011;57318;56.232;43.944;2022-10-23T07:41:24;10.80;;;5.57;;
69979;SDS011;57318;56.232;43.944;2022-10-23T07:43:50;12.53;;;5.83;;
69979;SDS011;57318;56.232;43.944;2022-10-23T07:46:15;13.47;;;6.03;;
69979;SDS011;57318;56.232;43.944;2022-10-23T07:48:41;12.32;;;5.75;;
69979;SDS011;57318;56.232;43.944;2022-10-23T07:51:09;11.50;;;5.63;;
69979;SDS011;57318;56.232;43.944;2022-10-23T07:53:37;13.15;;;5.60;;
69979;SDS011;57318;56.232;43.944;2022-10-23T07:56:09;15.75;;;5.63;;
69979;SDS011;57318;56.232;43.944;2022-10-23T07:58:38;12.38;;;5.68;;
69979;SDS011;57318;56.232;43.944;2022-10-23T08:01:05;9.93;;;5.63;;
69979;SDS011;57318;56.232;43.944;2022-10-23T08:03:44;13.52;;;5.47;;
69979;SDS011;57318;56.232;43.944;2022-10-23T08:06:10;12.10;;;6.70;;
69979;SDS011;57318;56.232;43.944;2022-10-23T08:08:36;10.15;;;5.93;;
69979;SDS011;57318;56.232;43.944;2022-10-23T08:11:05;11.50;;;5.45;;
69979;SDS011;57318;56.232;43.944;2022-10-23T08:13:32;11.07;;;5.80;;
69979;SDS011;57318;56.232;43.944;2022-10-23T08:16:02;12.88;;;5.65;;
69979;SDS011;57318;56.232;43.944;2022-10-23T08:18:28;13.20;;;6.60;;
69979;SDS011;57318;56.232;43.944;2022-10-23T08:20:58;12.88;;;5.68;;
69979;SDS011;57318;56.232;43.944;2022-10-23T08:23:29;12.30;;;6.57;;
69979;SDS011;57318;56.232;43.944;2022-10-23T08:25:56;12.37;;;6.27;;
69979;SDS011;57318;56.232;43.944;2022-10-23T08:28:25;12.77;;;5.07;;
69979;SDS011;57318;56.232;43.944;2022-10-23T08:30:52;10.98;;;6.05;;
69979;SDS011;57318;56.232;43.944;2022-10-23T08:33:18;11.07;;;5.75;;
69979;SDS011;57318;56.232;43.944;2022-10-23T08:35:44;12.13;;;6.07;;
69979;SDS011;57318;56.232;43.944;2022-10-23T08:38:09;10.73;;;5.57;;
69979;SDS011;57318;56.232;43.944;2022-10-23T08:40:35;12.10;;;6.10;;
69979;SDS011;57318;56.232;43.944;2022-10-23T08:48:29;15.15;;;6.47;;
69979;SDS011;57318;56.232;43.944;2022-10-23T08:54:25;14.40;;;6.30;;
69979;SDS011;57318;56.232;43.944;2022-10-23T08:57:08;15.43;;;5.65;;
69979;SDS011;57318;56.232;43.944;2022-10-23T08:59:43;11.77;;;6.45;;
69979;SDS011;57318;56.232;43.944;2022-10-23T09:02:15;18.38;;;9.95;;
69979;SDS011;57318;56.232;43.944;2022-10-23T09:04:46;12.70;;;6.13;;
69979;SDS011;57318;56.232;43.944;2022-10-23T09:12:45;11.80;;;6.35;;
69979;SDS011;57318;56.232;43.944;2022-10-23T09:17:41;10.97;;;6.13;;
69979;SDS011;57318;56.232;43.944;2022-10-23T09:22:57;10.05;;;5.72;;
69979;SDS011;57318;56.232;43.944;2022-10-23T09:25:26;13.93;;;6.38;;
69979;SDS011;57318;56.232;43.944;2022-10-23T09:27:55;11.82;;;5.63;;
69979;SDS011;57318;56.232;43.944;2022-10-23T09:30:32;12.55;;;6.43;;
69979;SDS011;57318;56.232;43.944;2022-10-23T09:33:11;12.38;;;6.18;;
69979;SDS011;57318;56.232;43.944;2022-10-23T09:35:52;11.48;;;6.20;;
69979;SDS011;57318;56.232;43.944;2022-10-23T09:38:30;12.60;;;6.35;;
69979;SDS011;57318;56.232;43.944;2022-10-23T09:40:59;12.45;;;6.00;;
69979;SDS011;57318;56.232;43.944;2022-10-23T09:43:30;13.20;;;6.65;;
69979;SDS011;57318;56.232;43.944;2022-10-23T09:46:00;11.38;;;5.97;;
69979;SDS011;57318;56.232;43.944;2022-10-23T09:48:27;12.68;;;5.95;;
69979;SDS011;57318;56.232;43.944;2022-10-23T09:56:03;11.65;;;5.65;;
69979;SDS011;57318;56.232;43.944;2022-10-23T09:58:37;13.18;;;7.22;;
69979;SDS011;57318;56.232;43.944;2022-10-23T10:01:20;10.80;;;6.90;;
69979;SDS011;57318;56.232;43.944;2022-10-23T10:03:48;10.43;;;6.57;;
69979;SDS011;57318;56.232;43.944;2022-10-23T10:06:20;9.13;;;6.50;;
69979;SDS011;57318;56.232;43.944;2022-10-23T10:08:49;10.40;;;6.53;;
69979;SDS011;57318;56.232;43.944;2022-10-23T10:16:55;11.40;;;6.43;;
69979;SDS011;57318;56.232;43.944;2022-10-23T10:19:41;11.05;;;6.55;;
69979;SDS011;57318;56.232;43.944;2022-10-23T10:38:50;11.95;;;5.00;;
69979;SDS011;57318;56.232;43.944;2022-10-23T10:44:23;7.75;;;5.32;;
69979;SDS011;57318;56.232;43.944;2022-10-23T10:47:21;13.05;;;5.60;;
69979;SDS011;57318;56.232;43.944;2022-10-23T10:55:29;14.10;;;5.20;;
69979;SDS011;57318;56.232;43.944;2022-10-23T10:58:02;14.45;;;5.55;;
69979;SDS011;57318;56.232;43.944;2022-10-23T11:00:29;10.52;;;5.60;;
69979;SDS011;57318;56.232;43.944;2022-10-23T11:05:46;14.70;;;7.22;;
69979;SDS011;57318;56.232;43.944;2022-10-23T11:08:18;13.18;;;7.47;;
69979;SDS011;57318;56.232;43.944;2022-10-23T11:13:27;8.68;;;6.10;;
69979;SDS011;57318;56.232;43.944;2022-10-23T11:15:55;10.35;;;5.88;;
69979;SDS011;57318;56.232;43.944;2022-10-23T11:18:26;10.43;;;5.70;;
69979;SDS011;57318;56.232;43.944;2022-10-23T11:20:57;9.23;;;5.80;;
69979;SDS011;57318;56.232;43.944;2022-10-23T11:37:22;11.63;;;7.28;;
69979;SDS011;57318;56.232;43.944;2022-10-23T11:42:43;13.65;;;6.35;;
69979;SDS011;57318;56.232;43.944;2022-10-23T11:48:04;13.88;;;7.35;;
69979;SDS011;57318;56.232;43.944;2022-10-23T11:50:32;18.55;;;7.80;;
69979;SDS011;57318;56.232;43.944;2022-10-23T11:53:23;12.77;;;7.03;;
69979;SDS011;57318;56.232;43.944;2022-10-23T11:55:56;16.23;;;6.75;;
69979;SDS011;57318;56.232;43.944;2022-10-23T11:58:27;16.08;;;7.65;;
69979;SDS011;57318;56.232;43.944;2022-10-23T12:01:16;13.20;;;7.05;;
69979;SDS011;57318;56.232;43.944;2022-10-23T12:06:31;16.23;;;7.68;;
69979;SDS011;57318;56.232;43.944;2022-10-23T12:09:29;13.82;;;6.68;;
69979;SDS011;57318;56.232;43.944;2022-10-23T12:19:48;16.85;;;7.78;;
69979;SDS011;57318;56.232;43.944;2022-10-23T12:22:14;18.48;;;7.78;;
69979;SDS011;57318;56.232;43.944;2022-10-23T12:24:59;17.63;;;7.13;;
69979;SDS011;57318;56.232;43.944;2022-10-23T12:31:02;16.75;;;8.55;;
69979;SDS011;57318;56.232;43.944;2022-10-23T12:33:49;21.67;;;8.43;;
69979;SDS011;57318;56.232;43.944;2022-10-23T12:36:42;17.38;;;8.20;;
69979;SDS011;57318;56.232;43.944;2022-10-23T12:39:28;15.95;;;8.45;;
69979;SDS011;57318;56.232;43.944;2022-10-23T12:41:56;17.70;;;7.72;;
69979;SDS011;57318;56.232;43.944;2022-10-23T12:44:23;16.58;;;8.32;;
69979;SDS011;57318;56.232;43.944;2022-10-23T12:46:52;18.58;;;7.75;;
69979;SDS011;57318;56.232;43.944;2022-10-23T12:49:21;14.13;;;7.18;;
69979;SDS011;57318;56.232;43.944;2022-10-23T12:54:25;21.70;;;9.05;;
69979;SDS011;57318;56.232;43.944;2022-10-23T12:56:52;15.20;;;7.55;;
69979;SDS011;57318;56.232;43.944;2022-10-23T12:59:25;17.25;;;8.85;;
69979;SDS011;57318;56.232;43.944;2022-10-23T13:02:12;13.77;;;7.78;;
69979;SDS011;57318;56.232;43.944;2022-10-23T13:04:49;18.85;;;7.93;;
69979;SDS011;57318;56.232;43.944;2022-10-23T13:07:20;14.45;;;8.32;;
69979;SDS011;57318;56.232;43.944;2022-10-23T13:09:49;15.05;;;7.70;;
69979;SDS011;57318;56.232;43.944;2022-10-23T13:12:23;14.13;;;7.15;;
69979;SDS011;57318;56.232;43.944;2022-10-23T13:17:20;14.30;;;7.97;;
69979;SDS011;57318;56.232;43.944;2022-10-23T13:22:41;14.70;;;7.47;;
69979;SDS011;57318;56.232;43.944;2022-10-23T13:27:45;11.43;;;6.80;;
69979;SDS011;57318;56.232;43.944;2022-10-23T13:30:26;17.13;;;7.10;;
69979;SDS011;57318;56.232;43.944;2022-10-23T13:32:56;17.98;;;8.40;;
69979;SDS011;57318;56.232;43.944;2022-10-23T13:35:22;13.87;;;7.33;;
69979;SDS011;57318;56.232;43.944;2022-10-23T13:37:50;12.63;;;7.65;;
69979;SDS011;57318;56.232;43.944;2022-10-23T13:40:20;15.60;;;7.27;;
69979;SDS011;57318;56.232;43.944;2022-10-23T13:42:48;15.23;;;7.38;;
69979;SDS011;57318;56.232;43.944;2022-10-23T13:47:45;14.45;;;7.55;;
69979;SDS011;57318;56.232;43.944;2022-10-23T13:50:11;12.35;;;6.80;;
69979;SDS011;57318;56.232;43.944;2022-10-23T13:52:37;15.97;;;7.03;;
69979;SDS011;57318;56.232;43.944;2022-10-23T13:55:05;16.47;;;7.20;;
69979;SDS011;57318;56.232;43.944;2022-10-23T13:57:41;13.25;;;7.07;;
69979;SDS011;57318;56.232;43.944;2022-10-23T14:00:07;13.03;;;7.77;;
69979;SDS011;57318;56.232;43.944;2022-10-23T14:02:34;17.38;;;6.95;;
69979;SDS011;57318;56.232;43.944;2022-10-23T14:05:00;11.60;;;6.33;;
69979;SDS011;57318;56.232;43.944;2022-10-23T14:07:25;12.57;;;7.33;;
69979;SDS011;57318;56.232;43.944;2022-10-23T14:09:51;13.07;;;7.43;;
69979;SDS011;57318;56.232;43.944;2022-10-23T14:12:16;11.80;;;7.10;;
69979;SDS011;57318;56.232;43.944;2022-10-23T14:14:42;14.93;;;7.53;;
69979;SDS011;57318;56.232;43.944;2022-10-23T14:17:08;13.73;;;7.90;;
69979;SDS011;57318;56.232;43.944;2022-10-23T14:19:33;12.60;;;7.30;;
69979;SDS011;57318;56.232;43.944;2022-10-23T14:21:59;17.80;;;7.57;;
69979;SDS011;57318;56.232;43.944;2022-10-23T14:24:24;13.93;;;7.23;;
69979;SDS011;57318;56.232;43.944;2022-10-23T14:26:50;11.53;;;7.40;;
69979;SDS011;57318;56.232;43.944;2022-10-23T14:29:16;10.43;;;6.13;;
69979;SDS011;57318;56.232;43.944;2022-10-23T14:31:41;10.70;;;6.47;;
69979;SDS011;57318;56.232;43.944;2022-10-23T14:34:07;11.90;;;5.90;;
69979;SDS011;57318;56.232;43.944;2022-10-23T14:36:33;12.93;;;6.27;;
69979;SDS011;57318;56.232;43.944;2022-10-23T14:38:58;12.40;;;6.40;;
69979;SDS011;57318;56.232;43.944;2022-10-23T14:41:26;12.83;;;6.07;;
69979;SDS011;57318;56.232;43.944;2022-10-23T14:43:52;15.00;;;7.38;;
69979;SDS011;57318;56.232;43.944;2022-10-23T14:46:20;11.10;;;6.32;;
69979;SDS011;57318;56.232;43.944;2022-10-23T14:48:47;12.90;;;5.95;;
69979;SDS011;57318;56.232;43.944;2022-10-23T14:51:24;19.75;;;6.35;;
69979;SDS011;57318;56.232;43.944;2022-10-23T14:53:58;9.68;;;6.10;;
69979;SDS011;57318;56.232;43.944;2022-10-23T14:56:28;10.63;;;6.05;;
69979;SDS011;57318;56.232;43.944;2022-10-23T14:58:55;7.40;;;5.20;;
69979;SDS011;57318;56.232;43.944;2022-10-23T15:01:28;10.30;;;6.13;;
69979;SDS011;57318;56.232;43.944;2022-10-23T15:03:57;9.15;;;5.53;;
69979;SDS011;57318;56.232;43.944;2022-10-23T15:06:23;8.87;;;5.90;;
69979;SDS011;57318;56.232;43.944;2022-10-23T15:08:49;11.17;;;5.73;;
69979;SDS011;57318;56.232;43.944;2022-10-23T15:11:21;9.45;;;6.10;;
69979;SDS011;57318;56.232;43.944;2022-10-23T15:13:48;8.32;;;5.10;;
69979;SDS011;57318;56.232;43.944;2022-10-23T15:16:14;11.40;;;5.75;;
69979;SDS011;57318;56.232;43.944;2022-10-23T15:18:40;8.27;;;4.97;;
69979;SDS011;57318;56.232;43.944;2022-10-23T15:21:06;10.33;;;5.57;;
69979;SDS011;57318;56.232;43.944;2022-10-23T15:23:34;12.23;;;5.30;;
69979;SDS011;57318;56.232;43.944;2022-10-23T15:26:02;7.82;;;5.45;;
69979;SDS011;57318;56.232;43.944;2022-10-23T15:28:31;12.18;;;5.50;;
69979;SDS011;57318;56.232;43.944;2022-10-23T15:30:57;9.73;;;5.30;;
69979;SDS011;57318;56.232;43.944;2022-10-23T15:33:23;6.93;;;4.68;;
69979;SDS011;57318;56.232;43.944;2022-10-23T15:38:16;9.20;;;4.95;;
69979;SDS011;57318;56.232;43.944;2022-10-23T15:40:42;12.13;;;5.60;;
69979;SDS011;57318;56.232;43.944;2022-10-23T15:43:13;16.88;;;6.82;;
69979;SDS011;57318;56.232;43.944;2022-10-23T15:45:40;13.18;;;7.10;;
69979;SDS011;57318;56.232;43.944;2022-10-23T15:48:07;10.43;;;6.28;;
69979;SDS011;57318;56.232;43.944;2022-10-23T15:50:33;11.85;;;6.50;;
69979;SDS011;57318;56.232;43.944;2022-10-23T15:55:25;15.35;;;7.70;;
69979;SDS011;57318;56.232;43.944;2022-10-23T15:57:51;9.93;;;5.88;;
69979;SDS011;57318;56.232;43.944;2022-10-23T16:00:18;6.97;;;4.28;;
69979;SDS011;57318;56.232;43.944;2022-10-23T16:02:44;9.57;;;4.40;;
69979;SDS011;57318;56.232;43.944;2022-10-23T16:05:10;10.35;;;5.65;;
69979;SDS011;57318;56.232;43.944;2022-10-23T16:07:36;7.17;;;4.73;;
69979;SDS011;57318;56.232;43.944;2022-10-23T16:10:02;13.53;;;5.07;;
69979;SDS011;57318;56.232;43.944;2022-10-23T16:12:28;7.55;;;4.15;;
69979;SDS011;57318;56.232;43.944;2022-10-23T16:14:54;9.07;;;4.67;;
69979;SDS011;57318;56.232;43.944;2022-10-23T16:17:19;9.97;;;4.87;;
69979;SDS011;57318;56.232;43.944;2022-10-23T16:19:45;7.07;;;4.30;;
69979;SDS011;57318;56.232;43.944;2022-10-23T16:22:10;8.50;;;4.80;;
69979;SDS011;57318;56.232;43.944;2022-10-23T16:24:36;11.63;;;4.87;;
69979;SDS011;57318;56.232;43.944;2022-10-23T16:27:02;7.68;;;4.68;;
69979;SDS011;57318;56.232;43.944;2022-10-23T16:29:28;8.37;;;4.60;;
69979;SDS011;57318;56.232;43.944;2022-10-23T16:31:54;8.43;;;4.60;;
69979;SDS011;57318;56.232;43.944;2022-10-23T16:34:21;7.90;;;4.93;;
69979;SDS011;57318;56.232;43.944;2022-10-23T16:36:47;6.90;;;4.22;;
69979;SDS011;57318;56.232;43.944;2022-10-23T16:39:14;9.93;;;5.03;;
69979;SDS011;57318;56.232;43.944;2022-10-23T16:41:41;7.68;;;4.10;;
69979;SDS011;57318;56.232;43.944;2022-10-23T16:44:07;7.00;;;4.38;;
69979;SDS011;57318;56.232;43.944;2022-10-23T16:46:33;8.43;;;4.70;;
69979;SDS011;57318;56.232;43.944;2022-10-23T16:48:59;7.50;;;4.50;;
69979;SDS011;57318;56.232;43.944;2022-10-23T16:51:27;10.23;;;4.32;;
69979;SDS011;57318;56.232;43.944;2022-10-23T16:53:55;8.20;;;4.70;;
69979;SDS011;57318;56.232;43.944;2022-10-23T16:56:22;10.93;;;4.50;;
69979;SDS011;57318;56.232;43.944;2022-10-23T16:58:49;11.13;;;5.43;;
69979;SDS011;57318;56.232;43.944;2022-10-23T17:01:22;11.00;;;4.73;;
69979;SDS011;57318;56.232;43.944;2022-10-23T17:03:50;9.35;;;4.45;;
69979;SDS011;57318;56.232;43.944;2022-10-23T17:06:18;10.52;;;4.78;;
69979;SDS011;57318;56.232;43.944;2022-10-23T17:08:46;10.98;;;4.38;;
69979;SDS011;57318;56.232;43.944;2022-10-23T17:11:16;7.97;;;4.37;;